createdAt,value
2022-09-04T00:00:10.873Z,16.30
2022-09-04T00:02:49.345Z,16.30
2022-09-04T00:05:20.249Z,16.30
2022-09-04T00:08:19.811Z,16.30
2022-09-04T00:11:07.513Z,16.30
2022-09-04T00:13:38.634Z,16.30
2022-09-04T00:16:24.685Z,16.40
2022-09-04T00:19:21.630Z,16.30
2022-09-04T00:22:05.371Z,16.30
2022-09-04T00:24:45.766Z,16.30
2022-09-04T00:27:23.438Z,16.40
2022-09-04T00:29:58.985Z,16.40
2022-09-04T00:32:41.499Z,16.40
2022-09-04T00:35:21.956Z,16.40
2022-09-04T00:38:04.142Z,16.30
2022-09-04T00:44:12.295Z,16.30
2022-09-04T00:49:53.064Z,16.30
2022-09-04T00:52:31.468Z,16.30
2022-09-04T00:55:13.122Z,16.30
2022-09-04T00:58:01.319Z,16.30
2022-09-04T01:00:28.196Z,16.20
2022-09-04T01:03:12.958Z,16.30
2022-09-04T01:05:39.693Z,16.30
2022-09-04T01:08:32.229Z,16.30
2022-09-04T01:11:39.903Z,16.20
2022-09-04T01:14:43.614Z,16.20
2022-09-04T01:17:13.192Z,16.20
2022-09-04T01:20:11.863Z,16.20
2022-09-04T01:22:57.365Z,16.20
2022-09-04T01:25:49.692Z,16.20
2022-09-04T01:28:38.860Z,16.20
2022-09-04T01:31:22.705Z,16.20
2022-09-04T01:34:01.056Z,16.20
2022-09-04T01:36:41.723Z,16.20
2022-09-04T01:39:08.579Z,16.20
2022-09-04T01:42:00.318Z,16.10
2022-09-04T01:44:27.208Z,16.10
2022-09-04T01:47:18.011Z,16.10
2022-09-04T01:49:59.109Z,16.00
2022-09-04T01:52:50.684Z,16.00
2022-09-04T01:55:42.800Z,16.00
2022-09-04T01:58:24.381Z,15.90
2022-09-04T02:01:09.497Z,15.90
2022-09-04T02:03:56.717Z,15.90
2022-09-04T02:06:36.564Z,15.80
2022-09-04T02:09:30.406Z,15.80
2022-09-04T02:12:26.318Z,15.80
2022-09-04T02:15:09.055Z,15.70
2022-09-04T02:20:39.173Z,15.70
2022-09-04T02:26:08.046Z,15.60
2022-09-04T02:29:02.901Z,15.60
2022-09-04T02:32:12.974Z,15.60
2022-09-04T02:35:03.573Z,15.60
2022-09-04T02:37:49.240Z,15.40
2022-09-04T02:40:50.628Z,15.50
2022-09-04T02:43:26.486Z,15.50
2022-09-04T02:46:28.075Z,15.60
2022-09-04T02:49:11.182Z,15.60
2022-09-04T02:52:08.827Z,15.60
2022-09-04T02:55:09.516Z,15.60
2022-09-04T02:57:48.262Z,15.60
2022-09-04T03:00:21.366Z,15.60
2022-09-04T03:03:21.027Z,15.60
2022-09-04T03:05:59.159Z,15.50
2022-09-04T03:11:27.033Z,15.40
2022-09-04T03:14:01.765Z,15.40
2022-09-04T03:16:44.384Z,15.40
2022-09-04T03:19:29.905Z,15.40
2022-09-04T03:22:10.387Z,15.20
2022-09-04T03:25:03.930Z,15.20
2022-09-04T03:30:22.026Z,15.10
2022-09-04T03:33:09.567Z,15.10
2022-09-04T03:35:39.438Z,15.00
2022-09-04T03:38:18.145Z,15.00
2022-09-04T03:41:15.008Z,14.90
2022-09-04T03:43:57.822Z,14.90
2022-09-04T03:52:44.579Z,14.80
2022-09-04T03:55:14.374Z,14.80
2022-09-04T03:57:52.421Z,14.80
2022-09-04T04:03:25.582Z,14.80
2022-09-04T04:06:11.130Z,14.80
2022-09-04T04:09:05.642Z,14.80
2022-09-04T04:15:16.488Z,14.80
2022-09-04T04:17:49.235Z,14.80
2022-09-04T04:20:28.048Z,14.80
2022-09-04T04:23:19.548Z,14.70
2022-09-04T04:26:21.626Z,14.70
2022-09-04T04:32:11.265Z,14.70
2022-09-04T04:34:53.583Z,14.70
2022-09-04T04:37:40.628Z,14.70
2022-09-04T04:40:32.935Z,14.70
2022-09-04T04:43:35.381Z,14.80
2022-09-04T04:46:18.573Z,14.70
2022-09-04T04:49:17.215Z,14.80
2022-09-04T04:51:52.564Z,14.80
2022-09-04T04:55:00.756Z,14.80
2022-09-04T05:03:39.044Z,14.80
2022-09-04T05:06:18.679Z,14.80
2022-09-04T05:08:56.126Z,14.80
2022-09-04T05:11:44.182Z,14.80
2022-09-04T05:14:39.133Z,14.80
2022-09-04T05:20:57.100Z,14.80
2022-09-04T05:23:34.824Z,14.80
2022-09-04T05:26:46.685Z,14.90
2022-09-04T05:29:55.280Z,14.90
2022-09-04T05:32:32.957Z,14.90
2022-09-04T05:35:24.740Z,14.90
2022-09-04T05:38:34.211Z,15.00
2022-09-04T05:41:07.640Z,15.10
2022-09-04T05:43:50.039Z,15.10
2022-09-04T05:46:25.789Z,15.10
2022-09-04T05:49:03.804Z,15.10
2022-09-04T05:51:41.176Z,15.10
2022-09-04T05:54:29.892Z,15.10
2022-09-04T05:57:11.869Z,15.10
2022-09-04T05:59:59.554Z,15.00
2022-09-04T06:09:34.081Z,15.00
2022-09-04T06:12:03.859Z,15.10
2022-09-04T06:14:33.395Z,15.10
2022-09-04T06:17:12.143Z,15.20
2022-09-04T06:19:52.765Z,15.10
2022-09-04T06:22:34.246Z,15.10
2022-09-04T06:25:10.739Z,15.10
2022-09-04T06:28:09.451Z,15.10
2022-09-04T06:30:56.359Z,15.00
2022-09-04T06:33:33.537Z,15.20
2022-09-04T06:36:13.886Z,15.40
2022-09-04T06:39:14.081Z,15.30
2022-09-04T06:42:02.524Z,15.30
2022-09-04T06:44:50.457Z,15.40
2022-09-04T06:50:30.204Z,15.50
2022-09-04T06:53:16.324Z,15.60
2022-09-04T06:56:21.721Z,15.70
2022-09-04T07:08:16.828Z,16.00
2022-09-04T07:10:52.332Z,16.20
2022-09-04T07:17:04.852Z,16.40
2022-09-04T07:19:45.796Z,16.40
2022-09-04T07:22:42.972Z,16.60
2022-09-04T07:25:21.842Z,16.80
2022-09-04T07:28:13.130Z,16.70
2022-09-04T07:30:51.109Z,16.90
2022-09-04T07:33:38.319Z,17.00
2022-09-04T07:36:26.431Z,17.10
2022-09-04T07:39:14.370Z,17.30
2022-09-04T07:41:51.565Z,17.30
2022-09-04T07:47:21.862Z,17.50
2022-09-04T07:50:23.963Z,17.70
2022-09-04T07:53:11.660Z,17.80
2022-09-04T07:55:51.685Z,17.80
2022-09-04T07:58:57.632Z,17.80
2022-09-04T08:01:40.222Z,18.00
2022-09-04T08:04:22.756Z,18.10
2022-09-04T08:07:08.194Z,18.30
2022-09-04T08:10:10.096Z,18.60
2022-09-04T08:12:48.506Z,18.90
2022-09-04T08:15:40.901Z,19.10
2022-09-04T08:18:28.240Z,19.50
2022-09-04T08:21:11.495Z,20.20
2022-09-04T08:23:56.800Z,22.90
2022-09-04T08:26:29.459Z,24.20
2022-09-04T08:29:13.743Z,24.20
2022-09-04T08:31:42.542Z,25.70
2022-09-04T08:34:39.237Z,25.70
2022-09-04T08:37:30.638Z,25.50
2022-09-04T08:40:26.255Z,25.90
2022-09-04T08:43:24.035Z,26.20
2022-09-04T08:46:05.915Z,26.80
2022-09-04T08:49:03.477Z,26.50
2022-09-04T08:51:51.428Z,27.00
2022-09-04T08:54:56.269Z,27.20
2022-09-04T08:57:35.140Z,27.50
2022-09-04T09:03:22.316Z,27.40
2022-09-04T09:06:36.533Z,26.80
2022-09-04T09:09:53.552Z,27.60
2022-09-04T09:25:19.307Z,29.10
2022-09-04T09:28:06.851Z,28.90
2022-09-04T09:31:07.299Z,28.80
2022-09-04T09:34:09.457Z,28.50
2022-09-04T09:40:26.896Z,28.20
2022-09-04T09:46:28.684Z,28.70
2022-09-04T09:49:30.295Z,29.00
2022-09-04T09:52:18.102Z,28.80
2022-09-04T09:55:06.747Z,28.00
2022-09-04T10:01:32.352Z,28.40
2022-09-04T10:04:17.197Z,28.40
2022-09-04T10:07:17.245Z,28.30
2022-09-04T10:10:28.117Z,28.10
2022-09-04T10:13:33.818Z,27.50
2022-09-04T10:16:27.793Z,27.90
2022-09-04T10:19:23.178Z,28.50
2022-09-04T10:22:33.277Z,28.30
2022-09-04T10:28:40.942Z,29.20
2022-09-04T10:31:26.356Z,28.80
2022-09-04T10:34:33.343Z,28.80
2022-09-04T10:37:08.865Z,29.00
2022-09-04T10:40:20.543Z,28.70
2022-09-04T10:43:05.023Z,28.90
2022-09-04T10:52:13.865Z,28.60
2022-09-04T10:54:59.514Z,28.70
2022-09-04T10:58:03.184Z,28.80
2022-09-04T11:01:20.059Z,28.20
2022-09-04T11:04:28.035Z,28.00
2022-09-04T11:07:13.252Z,28.90
2022-09-04T11:09:53.229Z,28.40
2022-09-04T11:12:36.999Z,27.90
2022-09-04T11:15:03.812Z,28.10
2022-09-04T11:17:45.475Z,27.70
2022-09-04T11:20:46.307Z,27.60
2022-09-04T11:24:05.250Z,26.80
2022-09-04T11:30:47.909Z,27.10
2022-09-04T11:33:39.186Z,27.90
2022-09-04T11:36:17.672Z,28.20
2022-09-04T11:38:56.647Z,28.50
2022-09-04T11:41:54.872Z,27.70
2022-09-04T11:44:35.578Z,26.80
2022-09-04T11:47:36.615Z,26.50
2022-09-04T11:50:40.500Z,27.10
2022-09-04T11:53:30.514Z,28.20
2022-09-04T11:59:28.196Z,28.10
2022-09-04T12:02:03.552Z,27.90
2022-09-04T12:05:03.333Z,27.60
2022-09-04T12:08:11.070Z,27.10
2022-09-04T12:10:52.452Z,28.10
2022-09-04T12:13:40.668Z,28.50
2022-09-04T12:16:32.309Z,28.30
2022-09-04T12:19:25.964Z,28.80
2022-09-04T12:22:22.319Z,28.80
2022-09-04T12:37:42.720Z,28.50
2022-09-04T12:40:33.423Z,29.10
2022-09-04T12:43:31.853Z,29.30
2022-09-04T12:46:23.639Z,29.00
2022-09-04T12:49:05.404Z,28.10
2022-09-04T12:52:09.930Z,28.40
2022-09-04T12:54:57.215Z,27.90
2022-09-04T13:00:49.844Z,26.10
2022-09-04T13:03:19.479Z,26.80
2022-09-04T13:06:09.883Z,26.90
2022-09-04T13:08:47.887Z,26.40
2022-09-04T13:11:38.937Z,25.90
2022-09-04T13:14:08.470Z,25.60
2022-09-04T13:16:45.585Z,25.80
2022-09-04T13:19:49.324Z,25.90
2022-09-04T13:22:38.271Z,25.90
2022-09-04T13:25:32.974Z,25.90
2022-09-04T13:31:01.576Z,26.10
2022-09-04T13:34:02.938Z,26.30
2022-09-04T13:36:40.897Z,25.90
2022-09-04T13:39:55.237Z,25.90
2022-09-04T13:43:16.100Z,25.90
2022-09-04T13:45:55.811Z,25.80
2022-09-04T13:48:22.886Z,26.10
2022-09-04T13:50:56.145Z,26.00
2022-09-04T13:53:26.057Z,26.00
2022-09-04T13:55:56.200Z,26.10
2022-09-04T13:58:38.956Z,26.20
2022-09-04T14:01:14.365Z,25.80
2022-09-04T14:03:46.110Z,25.70
2022-09-04T14:06:17.532Z,25.50
2022-09-04T14:09:04.191Z,25.10
2022-09-04T14:11:42.909Z,25.10
2022-09-04T14:14:34.112Z,25.00
2022-09-04T14:17:01.156Z,24.80
2022-09-04T14:29:07.163Z,24.10
2022-09-04T14:31:46.643Z,24.20
2022-09-04T14:34:37.367Z,24.10
2022-09-04T14:37:24.371Z,24.00
2022-09-04T14:40:09.604Z,23.80
2022-09-04T14:42:45.235Z,23.90
2022-09-04T14:46:02.355Z,23.80
2022-09-04T14:48:33.548Z,23.70
2022-09-04T14:51:14.201Z,23.80
2022-09-04T14:56:43.587Z,23.70
2022-09-04T14:59:16.502Z,23.60
2022-09-04T15:02:08.990Z,23.60
2022-09-04T15:05:09.569Z,23.50
2022-09-04T15:07:42.584Z,23.60
2022-09-04T15:10:15.273Z,23.60
2022-09-04T15:12:52.525Z,23.60
2022-09-04T15:15:31.404Z,23.50
2022-09-04T15:18:10.643Z,23.60
2022-09-04T15:20:46.218Z,23.60
2022-09-04T15:23:35.180Z,23.60
2022-09-04T15:26:04.223Z,23.90
2022-09-04T15:28:47.294Z,23.90
2022-09-04T15:31:33.569Z,24.10
2022-09-04T15:36:50.786Z,24.20
2022-09-04T15:39:35.627Z,24.50
2022-09-04T15:42:02.571Z,24.50
2022-09-04T15:44:46.441Z,24.30
2022-09-04T15:47:56.003Z,24.30
2022-09-04T15:50:27.735Z,24.20
2022-09-04T15:53:13.189Z,23.90
2022-09-04T15:55:42.994Z,23.60
2022-09-04T15:58:27.101Z,23.50
2022-09-04T16:01:10.960Z,23.70
2022-09-04T16:03:45.344Z,23.70
2022-09-04T16:09:44.415Z,23.60
2022-09-04T16:12:34.243Z,23.70
2022-09-04T16:15:45.061Z,23.50
2022-09-04T16:18:31.306Z,23.30
2022-09-04T16:21:01.589Z,23.10
2022-09-04T16:23:38.871Z,22.90
2022-09-04T16:26:12.896Z,22.90
2022-09-04T16:31:35.064Z,22.70
2022-09-04T16:34:24.393Z,22.70
2022-09-04T16:36:59.816Z,22.60
2022-09-04T16:39:56.388Z,22.60
2022-09-04T16:42:37.953Z,22.40
2022-09-04T16:45:11.060Z,22.40
2022-09-04T16:50:35.735Z,22.40
2022-09-04T16:53:41.376Z,22.40
2022-09-04T16:56:36.829Z,22.30
2022-09-04T16:59:18.752Z,22.20
2022-09-04T17:02:16.861Z,22.10
2022-09-04T17:05:10.091Z,22.10
2022-09-04T17:07:48.859Z,22.10
2022-09-04T17:10:18.898Z,22.00
2022-09-04T17:12:53.771Z,22.00
2022-09-04T17:15:32.324Z,21.90
2022-09-04T17:25:19.651Z,21.80
2022-09-04T17:28:54.301Z,21.70
2022-09-04T17:29:09.739Z,21.60
2022-09-04T17:30:53.156Z,21.50
2022-09-04T17:36:24.971Z,21.40
2022-09-04T17:40:43.588Z,21.30
2022-09-04T17:40:44.479Z,21.20
2022-09-04T17:42:08.782Z,21.10
2022-09-04T17:47:34.414Z,20.90
2022-09-04T17:53:01.529Z,20.70
2022-09-04T17:55:34.936Z,20.60
2022-09-04T17:58:23.907Z,20.60
2022-09-04T18:01:14.542Z,20.50
2022-09-04T18:04:02.746Z,20.40
2022-09-04T18:06:47.027Z,20.40
2022-09-04T18:09:27.124Z,20.30
2022-09-04T18:12:14.175Z,20.30
2022-09-04T18:15:18.319Z,20.20
2022-09-04T18:17:57.457Z,20.20
2022-09-04T18:20:45.194Z,20.30
2022-09-04T18:23:24.469Z,20.20
2022-09-04T18:25:58.426Z,20.10
2022-09-04T18:28:34.720Z,20.10
2022-09-04T18:37:07.894Z,20.10
2022-09-04T18:37:23.988Z,20.00
2022-09-04T18:37:45.135Z,19.90
2022-09-04T18:40:43.156Z,19.80
2022-09-04T18:50:29.963Z,19.80
2022-09-04T18:50:30.864Z,19.70
2022-09-04T18:50:34.958Z,19.70
2022-09-04T18:51:58.983Z,19.70
2022-09-04T18:54:29.748Z,19.60
2022-09-04T18:57:06.572Z,19.60
2022-09-04T18:59:42.445Z,19.50
2022-09-04T19:02:27.816Z,19.50
2022-09-04T19:05:01.989Z,19.40
2022-09-04T19:07:42.598Z,19.30
2022-09-04T19:10:18.113Z,19.30
2022-09-04T19:12:51.027Z,19.30
2022-09-04T19:15:47.321Z,19.20
2022-09-04T19:21:40.921Z,19.10
2022-09-04T19:24:15.497Z,19.00
2022-09-04T19:26:57.317Z,18.90
2022-09-04T19:32:37.298Z,18.80
2022-09-04T19:35:13.374Z,18.70
2022-09-04T19:45:53.655Z,18.70
2022-09-04T19:46:09.185Z,18.60
2022-09-04T19:46:26.301Z,18.60
2022-09-04T19:47:31.163Z,18.50
2022-09-04T19:53:30.003Z,18.40
2022-09-04T19:53:36.807Z,18.40
2022-09-04T19:56:03.866Z,18.30
2022-09-04T19:58:48.629Z,18.30
2022-09-04T20:01:19.725Z,18.30
2022-09-04T20:03:56.643Z,18.20
2022-09-04T20:06:36.647Z,18.10
2022-09-04T20:09:33.180Z,18.10
2022-09-04T20:12:10.864Z,18.10
2022-09-04T20:14:47.190Z,18.00
2022-09-04T20:17:43.091Z,18.00
2022-09-04T20:20:25.107Z,17.90
2022-09-04T20:23:34.132Z,17.90
2022-09-04T20:26:00.547Z,17.80
2022-09-04T20:28:48.569Z,17.80
2022-09-04T20:31:39.628Z,17.80
2022-09-04T20:34:21.389Z,17.70
2022-09-04T20:36:55.168Z,17.70
2022-09-04T20:39:48.087Z,17.70
2022-09-04T20:42:46.826Z,17.60
2022-09-04T20:51:59.743Z,17.60
2022-09-04T20:52:52.044Z,17.60
2022-09-04T20:53:05.797Z,17.50
2022-09-04T21:02:43.412Z,17.50
2022-09-04T21:03:19.032Z,17.40
2022-09-04T21:03:28.310Z,17.40
2022-09-04T21:06:33.976Z,17.40
2022-09-04T21:12:13.772Z,17.30
2022-09-04T21:14:46.380Z,17.30
2022-09-04T21:17:38.175Z,17.30
2022-09-04T21:20:17.135Z,17.20
2022-09-04T21:22:55.392Z,17.10
2022-09-04T21:25:35.189Z,17.10
2022-09-04T21:28:22.829Z,17.10
2022-09-04T21:31:44.213Z,17.00
2022-09-04T21:41:05.138Z,17.00
2022-09-04T21:43:35.835Z,16.90
2022-09-04T21:46:29.800Z,16.90
2022-09-04T21:49:26.241Z,16.80
2022-09-04T21:52:04.624Z,16.80
2022-09-04T21:57:27.357Z,16.80
2022-09-04T22:02:28.409Z,16.80
2022-09-04T22:02:38.654Z,16.80
2022-09-04T22:03:27.949Z,16.70
2022-09-04T22:06:09.846Z,16.80
2022-09-04T22:13:32.115Z,16.80
2022-09-04T22:13:42.732Z,16.80
2022-09-04T22:17:54.950Z,16.80
2022-09-04T22:20:51.444Z,16.80
2022-09-04T22:23:55.659Z,16.80
2022-09-04T22:29:44.071Z,16.80
2022-09-04T22:32:38.677Z,16.70
2022-09-04T22:35:23.956Z,16.70
2022-09-04T22:38:28.464Z,16.60
2022-09-04T22:41:18.762Z,16.60
2022-09-04T22:47:53.170Z,16.50
2022-09-04T22:51:05.466Z,16.50
2022-09-04T22:53:55.879Z,16.40
2022-09-04T22:57:11.980Z,16.40
2022-09-04T22:59:44.604Z,16.40
2022-09-04T23:02:47.051Z,16.30
2022-09-04T23:05:39.473Z,16.30
2022-09-04T23:13:46.329Z,16.20
2022-09-04T23:13:50.524Z,16.20
2022-09-04T23:15:11.458Z,16.10
2022-09-04T23:18:06.370Z,16.10
2022-09-04T23:26:38.299Z,16.20
2022-09-04T23:26:46.440Z,16.20
2022-09-04T23:27:50.207Z,16.20
2022-09-04T23:30:25.108Z,16.30
2022-09-04T23:36:33.927Z,16.20
2022-09-04T23:39:03.703Z,16.20
2022-09-04T23:41:53.146Z,16.20
2022-09-04T23:44:29.297Z,16.20
2022-09-04T23:47:48.321Z,16.30
2022-09-04T23:50:31.762Z,16.30
2022-09-04T23:53:08.525Z,16.30
2022-09-04T23:59:15.727Z,16.30
